createdAt,value
2022-09-22T00:02:07.609Z,100.00
2022-09-22T00:04:34.038Z,100.00
2022-09-22T00:07:00.371Z,100.00
2022-09-22T00:09:26.718Z,100.00
2022-09-22T00:11:53.992Z,100.00
2022-09-22T00:14:21.402Z,100.00
2022-09-22T00:16:48.689Z,100.00
2022-09-22T00:19:16.926Z,100.00
2022-09-22T00:21:43.501Z,100.00
2022-09-22T00:24:09.873Z,100.00
2022-09-22T00:26:36.600Z,100.00
2022-09-22T00:29:03.150Z,100.00
2022-09-22T00:31:29.814Z,100.00
2022-09-22T00:33:56.488Z,100.00
2022-09-22T00:36:24.091Z,100.00
2022-09-22T00:38:54.006Z,100.00
2022-09-22T00:41:27.749Z,100.00
2022-09-22T00:44:13.086Z,100.00
2022-09-22T00:46:40.063Z,100.00
2022-09-22T00:49:06.551Z,100.00
2022-09-22T00:51:33.796Z,100.00
2022-09-22T00:54:00.609Z,100.00
2022-09-22T00:56:28.474Z,100.00
2022-09-22T00:58:56.619Z,100.00
2022-09-22T01:01:23.042Z,100.00
2022-09-22T01:03:50.076Z,100.00
2022-09-22T01:06:17.899Z,100.00
2022-09-22T01:08:44.635Z,100.00
2022-09-22T01:11:11.162Z,100.00
2022-09-22T01:13:56.483Z,100.00
2022-09-22T01:16:22.816Z,100.00
2022-09-22T01:18:49.195Z,100.00
2022-09-22T01:21:23.984Z,100.00
2022-09-22T01:24:05.937Z,100.00
2022-09-22T01:26:42.107Z,100.00
2022-09-22T01:29:08.492Z,100.00
2022-09-22T01:31:50.934Z,100.00
2022-09-22T01:34:31.393Z,100.00
2022-09-22T01:37:16.551Z,100.00
2022-09-22T01:39:43.698Z,100.00
2022-09-22T01:42:11.474Z,100.00
2022-09-22T01:44:43.561Z,100.00
2022-09-22T01:47:11.106Z,100.00
2022-09-22T01:49:38.935Z,100.00
2022-09-22T01:52:16.694Z,100.00
2022-09-22T01:55:03.238Z,100.00
2022-09-22T01:57:48.520Z,100.00
2022-09-22T02:00:15.193Z,100.00
2022-09-22T02:02:44.856Z,100.00
2022-09-22T02:05:19.304Z,100.00
2022-09-22T02:07:46.327Z,100.00
2022-09-22T02:10:13.133Z,100.00
2022-09-22T02:12:39.488Z,100.00
2022-09-22T02:15:05.999Z,100.00
2022-09-22T02:17:35.193Z,100.00
2022-09-22T02:20:02.008Z,100.00
2022-09-22T02:22:28.331Z,100.00
2022-09-22T02:24:54.682Z,100.00
2022-09-22T02:27:25.701Z,100.00
2022-09-22T02:29:56.597Z,100.00
2022-09-22T02:32:22.921Z,100.00
2022-09-22T02:34:49.249Z,100.00
2022-09-22T02:37:15.515Z,100.00
2022-09-22T02:39:43.309Z,100.00
2022-09-22T02:42:09.590Z,100.00
2022-09-22T02:44:42.165Z,100.00
2022-09-22T02:47:10.113Z,100.00
2022-09-22T02:49:36.497Z,100.00
2022-09-22T02:52:02.838Z,100.00
2022-09-22T02:54:29.223Z,100.00
2022-09-22T02:56:55.544Z,100.00
2022-09-22T02:59:21.911Z,100.00
2022-09-22T03:01:49.796Z,100.00
2022-09-22T03:04:16.251Z,100.00
2022-09-22T03:06:42.592Z,100.00
2022-09-22T03:09:08.971Z,100.00
2022-09-22T03:11:35.312Z,100.00
2022-09-22T03:14:01.667Z,100.00
2022-09-22T03:16:28.001Z,100.00
2022-09-22T03:18:54.392Z,100.00
2022-09-22T03:21:20.750Z,100.00
2022-09-22T03:23:47.162Z,100.00
2022-09-22T03:26:13.492Z,100.00
2022-09-22T03:28:39.844Z,100.00
2022-09-22T03:31:06.239Z,100.00
2022-09-22T03:33:32.818Z,100.00
2022-09-22T03:35:59.160Z,100.00
2022-09-22T03:38:25.510Z,100.00
2022-09-22T03:40:52.640Z,100.00
2022-09-22T03:43:19.202Z,100.00
2022-09-22T03:45:45.617Z,100.00
2022-09-22T03:48:12.064Z,100.00
2022-09-22T03:50:38.416Z,100.00
2022-09-22T03:53:04.741Z,100.00
2022-09-22T03:55:31.110Z,100.00
2022-09-22T03:57:57.439Z,100.00
2022-09-22T04:00:23.771Z,100.00
2022-09-22T04:02:50.145Z,100.00
2022-09-22T04:05:16.515Z,100.00
2022-09-22T04:07:42.904Z,100.00
2022-09-22T04:10:09.243Z,100.00
2022-09-22T04:12:37.179Z,100.00
2022-09-22T04:15:04.010Z,100.00
2022-09-22T04:17:30.352Z,100.00
2022-09-22T04:19:57.230Z,100.00
2022-09-22T04:22:23.565Z,100.00
2022-09-22T04:24:49.892Z,100.00
2022-09-22T04:27:19.871Z,100.00
2022-09-22T04:29:46.879Z,100.00
2022-09-22T04:32:14.417Z,100.00
2022-09-22T04:34:40.846Z,100.00
2022-09-22T04:37:07.170Z,100.00
2022-09-22T04:39:33.532Z,100.00
2022-09-22T04:41:59.866Z,100.00
2022-09-22T04:44:26.179Z,100.00
2022-09-22T04:46:52.635Z,100.00
2022-09-22T04:49:19.068Z,100.00
2022-09-22T04:51:45.396Z,100.00
2022-09-22T04:54:11.712Z,100.00
2022-09-22T04:56:39.843Z,100.00
2022-09-22T04:59:06.171Z,100.00
2022-09-22T05:01:32.724Z,100.00
2022-09-22T05:03:59.105Z,100.00
2022-09-22T05:06:26.271Z,100.00
2022-09-22T05:08:52.619Z,100.00
2022-09-22T05:11:23.602Z,100.00
2022-09-22T05:13:50.816Z,100.00
2022-09-22T05:16:17.420Z,100.00
2022-09-22T05:18:43.835Z,100.00
2022-09-22T05:21:10.214Z,100.00
2022-09-22T05:23:36.615Z,100.00
2022-09-22T05:26:03.176Z,100.00
2022-09-22T05:28:29.532Z,100.00
2022-09-22T05:30:55.857Z,100.00
2022-09-22T05:33:22.499Z,100.00
2022-09-22T05:35:48.833Z,100.00
2022-09-22T05:38:15.298Z,100.00
2022-09-22T05:40:41.684Z,100.00
2022-09-22T05:43:08.104Z,100.00
2022-09-22T05:45:34.517Z,100.00
2022-09-22T05:48:00.910Z,100.00
2022-09-22T05:50:27.234Z,100.00
2022-09-22T05:53:01.542Z,100.00
2022-09-22T05:55:27.850Z,100.00
2022-09-22T05:57:57.553Z,100.00
2022-09-22T06:00:23.879Z,100.00
2022-09-22T06:02:50.247Z,100.00
2022-09-22T06:05:18.973Z,100.00
2022-09-22T06:07:46.102Z,100.00
2022-09-22T06:10:12.717Z,100.00
2022-09-22T06:12:39.429Z,100.00
2022-09-22T06:15:05.900Z,100.00
2022-09-22T06:17:32.271Z,100.00
2022-09-22T06:20:00.742Z,100.00
2022-09-22T06:22:27.250Z,100.00
2022-09-22T06:24:53.817Z,100.00
2022-09-22T06:27:20.135Z,100.00
2022-09-22T06:29:46.468Z,100.00
2022-09-22T06:32:12.791Z,100.00
2022-09-22T06:34:39.165Z,100.00
2022-09-22T06:37:08.534Z,100.00
2022-09-22T06:39:37.645Z,100.00
2022-09-22T06:42:04.963Z,100.00
2022-09-22T06:44:31.906Z,100.00
2022-09-22T06:46:58.368Z,100.00
2022-09-22T06:49:25.671Z,100.00
2022-09-22T06:51:52.002Z,100.00
2022-09-22T06:54:18.483Z,100.00
2022-09-22T06:56:44.972Z,100.00
2022-09-22T06:59:14.310Z,100.00
2022-09-22T07:01:41.016Z,100.00
2022-09-22T07:04:07.430Z,100.00
2022-09-22T07:06:34.002Z,100.00
2022-09-22T07:09:00.433Z,100.00
2022-09-22T07:11:26.819Z,100.00
2022-09-22T07:13:53.483Z,100.00
2022-09-22T07:16:20.514Z,100.00
2022-09-22T07:18:47.494Z,100.00
2022-09-22T07:21:14.611Z,100.00
2022-09-22T07:23:41.265Z,100.00
2022-09-22T07:26:08.467Z,100.00
2022-09-22T07:28:35.032Z,100.00
2022-09-22T07:31:08.404Z,100.00
2022-09-22T07:33:38.359Z,100.00
2022-09-22T07:36:08.853Z,100.00
2022-09-22T07:38:36.914Z,100.00
2022-09-22T07:41:11.939Z,100.00
2022-09-22T07:43:38.528Z,100.00
2022-09-22T07:46:04.959Z,100.00
2022-09-22T07:48:47.838Z,100.00
2022-09-22T07:51:21.476Z,100.00
2022-09-22T07:53:49.124Z,100.00
2022-09-22T07:56:16.165Z,100.00
2022-09-22T07:58:46.837Z,100.00
2022-09-22T08:01:13.267Z,100.00
2022-09-22T08:03:39.795Z,100.00
2022-09-22T08:06:12.418Z,99.76
2022-09-22T08:08:39.490Z,98.92
2022-09-22T08:11:06.630Z,99.39
2022-09-22T08:13:34.694Z,99.14
2022-09-22T08:16:03.787Z,95.39
2022-09-22T08:18:30.251Z,95.40
2022-09-22T08:20:56.592Z,93.56
2022-09-22T08:23:23.535Z,93.55
2022-09-22T08:25:50.732Z,92.27
2022-09-22T08:28:17.100Z,92.29
2022-09-22T08:30:47.119Z,90.04
2022-09-22T08:33:13.514Z,90.63
2022-09-22T08:35:50.916Z,90.12
2022-09-22T08:38:17.323Z,87.73
2022-09-22T08:40:43.969Z,84.98
2022-09-22T08:43:10.329Z,87.60
2022-09-22T08:45:36.784Z,88.57
2022-09-22T08:48:24.970Z,81.91
2022-09-22T08:51:24.319Z,83.26
2022-09-22T08:53:51.541Z,80.10
2022-09-22T08:56:28.352Z,80.18
2022-09-22T08:58:55.193Z,76.51
2022-09-22T09:01:38.269Z,77.08
2022-09-22T09:04:11.173Z,73.71
2022-09-22T09:06:58.165Z,74.19
2022-09-22T09:09:31.108Z,77.41
2022-09-22T09:12:10.205Z,73.23
2022-09-22T09:14:36.486Z,69.45
2022-09-22T09:17:10.820Z,73.03
2022-09-22T09:19:40.469Z,71.16
2022-09-22T09:22:18.971Z,71.77
2022-09-22T09:27:38.256Z,70.73
2022-09-22T09:30:04.650Z,74.19
2022-09-22T09:32:43.674Z,76.24
2022-09-22T09:35:14.803Z,73.13
2022-09-22T09:37:42.784Z,71.13
2022-09-22T09:40:18.811Z,71.01
2022-09-22T09:42:54.654Z,74.58
2022-09-22T09:45:21.497Z,70.14
2022-09-22T09:47:59.208Z,67.44
2022-09-22T09:50:25.961Z,69.26
2022-09-22T09:52:55.506Z,65.34
2022-09-22T09:55:28.280Z,64.81
2022-09-22T09:58:01.140Z,66.44
2022-09-22T10:00:33.786Z,67.07
2022-09-22T10:03:03.213Z,65.93
2022-09-22T10:05:29.676Z,65.71
2022-09-22T10:07:55.975Z,64.60
2022-09-22T10:10:35.734Z,66.41
2022-09-22T10:13:05.075Z,66.14
2022-09-22T10:15:35.290Z,65.03
2022-09-22T10:18:01.883Z,65.29
2022-09-22T10:20:29.205Z,61.66
2022-09-22T10:22:55.908Z,61.43
2022-09-22T10:25:26.092Z,62.98
2022-09-22T10:28:01.540Z,60.57
2022-09-22T10:30:28.242Z,61.11
2022-09-22T10:33:07.198Z,61.22
2022-09-22T10:35:33.690Z,58.35
2022-09-22T10:38:01.799Z,59.31
2022-09-22T10:40:28.196Z,56.46
2022-09-22T10:42:55.260Z,56.63
2022-09-22T10:45:22.703Z,55.42
2022-09-22T10:47:54.554Z,58.85
2022-09-22T10:50:23.616Z,55.95
2022-09-22T10:53:02.824Z,59.15
2022-09-22T10:55:30.169Z,57.92
2022-09-22T10:58:00.486Z,55.67
2022-09-22T11:00:27.012Z,55.84
2022-09-22T11:02:59.553Z,53.96
2022-09-22T11:05:50.872Z,52.93
2022-09-22T11:08:36.241Z,55.30
2022-09-22T11:11:23.421Z,53.81
2022-09-22T11:13:49.706Z,53.19
2022-09-22T11:16:15.978Z,54.44
2022-09-22T11:18:51.345Z,53.83
2022-09-22T11:21:21.669Z,50.56
2022-09-22T11:24:03.314Z,51.82
2022-09-22T11:26:50.031Z,52.31
2022-09-22T11:29:34.736Z,51.25
2022-09-22T11:32:19.817Z,51.40
2022-09-22T11:35:15.533Z,50.54
2022-09-22T11:37:41.995Z,50.20
2022-09-22T11:40:20.864Z,47.63
2022-09-22T11:42:55.138Z,49.59
2022-09-22T11:45:37.121Z,49.34
2022-09-22T11:48:22.286Z,48.84
2022-09-22T11:50:48.583Z,48.55
2022-09-22T11:53:17.957Z,47.95
2022-09-22T11:56:04.253Z,47.84
2022-09-22T11:58:31.203Z,49.71
2022-09-22T12:01:13.287Z,47.60
2022-09-22T12:03:53.364Z,45.38
2022-09-22T12:06:24.203Z,46.80
2022-09-22T12:09:17.087Z,46.47
2022-09-22T12:11:43.428Z,47.51
2022-09-22T12:14:13.426Z,46.56
2022-09-22T12:16:43.665Z,49.53
2022-09-22T12:19:19.170Z,47.47
2022-09-22T12:21:47.812Z,45.67
2022-09-22T12:24:14.190Z,44.28
2022-09-22T12:26:41.332Z,49.22
2022-09-22T12:29:27.886Z,47.08
2022-09-22T12:31:59.015Z,46.11
2022-09-22T12:34:29.486Z,44.34
2022-09-22T12:36:57.158Z,44.58
2022-09-22T12:39:23.479Z,41.49
2022-09-22T12:41:50.361Z,43.79
2022-09-22T12:44:21.111Z,44.32
2022-09-22T12:46:47.515Z,42.19
2022-09-22T12:49:15.091Z,47.60
2022-09-22T12:51:41.413Z,44.98
2022-09-22T12:54:23.109Z,40.88
2022-09-22T12:57:01.675Z,39.86
2022-09-22T12:59:40.198Z,44.25
2022-09-22T13:02:15.984Z,47.64
2022-09-22T13:04:46.684Z,46.94
2022-09-22T13:07:31.927Z,42.89
2022-09-22T13:10:17.293Z,45.79
2022-09-22T13:13:05.674Z,46.35
2022-09-22T13:15:45.141Z,44.82
2022-09-22T13:18:27.687Z,43.46
2022-09-22T13:20:54.114Z,42.79
2022-09-22T13:23:20.528Z,43.46
2022-09-22T13:25:47.022Z,44.42
2022-09-22T13:28:14.812Z,43.98
2022-09-22T13:30:41.966Z,40.58
2022-09-22T13:33:18.153Z,43.04
2022-09-22T13:35:44.488Z,43.86
2022-09-22T13:38:11.999Z,45.74
2022-09-22T13:40:38.434Z,42.22
2022-09-22T13:43:06.531Z,43.12
2022-09-22T13:45:32.943Z,42.02
2022-09-22T13:48:08.337Z,44.32
2022-09-22T13:50:38.525Z,41.87
2022-09-22T13:53:05.077Z,39.67
2022-09-22T13:55:35.302Z,40.05
2022-09-22T13:58:02.951Z,43.51
2022-09-22T14:00:38.219Z,42.36
2022-09-22T14:03:15.650Z,39.81
2022-09-22T14:05:53.156Z,41.41
2022-09-22T14:08:22.140Z,40.75
2022-09-22T14:10:48.897Z,40.39
2022-09-22T14:13:34.076Z,41.08
2022-09-22T14:16:05.367Z,42.22
2022-09-22T14:18:31.766Z,38.72
2022-09-22T14:20:58.111Z,41.83
2022-09-22T14:23:24.378Z,43.46
2022-09-22T14:25:50.712Z,42.64
2022-09-22T14:28:19.114Z,43.53
2022-09-22T14:30:45.530Z,46.06
2022-09-22T14:33:15.346Z,43.33
2022-09-22T14:35:42.188Z,45.59
2022-09-22T14:38:18.866Z,48.66
2022-09-22T14:40:53.991Z,48.76
2022-09-22T14:43:30.320Z,50.09
2022-09-22T14:46:00.560Z,54.51
2022-09-22T14:48:33.959Z,50.44
2022-09-22T14:51:01.388Z,50.33
2022-09-22T14:53:37.687Z,51.56
2022-09-22T14:56:07.849Z,52.49
2022-09-22T14:58:40.309Z,49.63
2022-09-22T15:01:34.588Z,53.71
2022-09-22T15:04:02.729Z,57.60
2022-09-22T15:06:37.188Z,58.79
2022-09-22T15:09:06.704Z,60.56
2022-09-22T15:12:08.824Z,56.25
2022-09-22T15:14:41.310Z,53.86
2022-09-22T15:17:45.165Z,54.90
2022-09-22T15:20:12.887Z,53.67
2022-09-22T15:22:39.995Z,54.37
2022-09-22T15:25:06.439Z,54.58
2022-09-22T15:27:32.788Z,57.70
2022-09-22T15:29:59.554Z,54.60
2022-09-22T15:32:25.930Z,55.18
2022-09-22T15:34:52.331Z,54.20
2022-09-22T15:37:19.611Z,55.36
2022-09-22T15:39:45.966Z,56.63
2022-09-22T15:42:12.470Z,56.09
2022-09-22T15:44:38.833Z,56.80
2022-09-22T15:47:05.648Z,57.41
2022-09-22T15:49:35.016Z,57.59
2022-09-22T15:52:04.776Z,58.67
2022-09-22T15:54:31.378Z,60.43
2022-09-22T15:56:59.160Z,63.42
2022-09-22T15:59:27.315Z,62.41
2022-09-22T16:01:57.226Z,63.49
2022-09-22T16:04:23.768Z,65.41
2022-09-22T16:06:52.596Z,65.31
2022-09-22T16:09:19.125Z,63.91
2022-09-22T16:11:45.476Z,64.79
2022-09-22T16:14:11.899Z,64.92
2022-09-22T16:16:38.353Z,65.37
2022-09-22T16:19:07.932Z,67.94
2022-09-22T16:21:35.128Z,66.95
2022-09-22T16:24:03.918Z,67.24
2022-09-22T16:26:31.648Z,69.76
2022-09-22T16:28:58.163Z,69.79
2022-09-22T16:31:24.619Z,70.82
2022-09-22T16:33:54.706Z,71.46
2022-09-22T16:36:21.668Z,70.34
2022-09-22T16:38:48.362Z,71.29
2022-09-22T16:41:17.711Z,75.20
2022-09-22T16:43:44.228Z,73.47
2022-09-22T16:46:29.820Z,72.91
2022-09-22T16:48:58.482Z,71.23
2022-09-22T16:51:25.061Z,71.65
2022-09-22T16:53:53.712Z,72.28
2022-09-22T16:56:20.190Z,75.00
2022-09-22T16:58:46.597Z,76.76
2022-09-22T17:01:19.445Z,78.05
2022-09-22T17:03:46.519Z,80.99
2022-09-22T17:06:14.366Z,79.59
2022-09-22T17:08:46.611Z,77.50
2022-09-22T17:11:13.558Z,77.45
2022-09-22T17:13:40.189Z,79.53
2022-09-22T17:16:10.550Z,78.89
2022-09-22T17:18:40.185Z,81.02
2022-09-22T17:21:08.146Z,84.51
2022-09-22T17:23:36.225Z,85.84
2022-09-22T17:26:03.032Z,86.71
2022-09-22T17:28:29.415Z,87.54
2022-09-22T17:30:59.045Z,87.85
2022-09-22T17:33:26.382Z,83.77
2022-09-22T17:35:59.351Z,80.15
2022-09-22T17:38:26.965Z,84.20
2022-09-22T17:40:55.930Z,85.86
2022-09-22T17:43:22.685Z,82.35
2022-09-22T17:45:49.052Z,83.39
2022-09-22T17:48:34.135Z,79.17
2022-09-22T17:51:18.966Z,83.40
2022-09-22T17:54:04.080Z,84.92
2022-09-22T17:56:30.397Z,84.16
2022-09-22T17:58:56.737Z,83.77
2022-09-22T18:01:23.140Z,83.20
2022-09-22T18:03:49.498Z,82.97
2022-09-22T18:06:16.324Z,83.06
2022-09-22T18:08:44.399Z,82.92
2022-09-22T18:11:11.184Z,84.49
2022-09-22T18:13:40.271Z,84.64
2022-09-22T18:16:18.502Z,83.71
2022-09-22T18:18:44.889Z,87.13
2022-09-22T18:21:11.223Z,87.29
2022-09-22T18:23:39.762Z,86.89
2022-09-22T18:26:06.123Z,87.27
2022-09-22T18:28:33.743Z,88.29
2022-09-22T18:31:00.897Z,88.16
2022-09-22T18:33:27.518Z,86.62
2022-09-22T18:35:54.733Z,83.90
2022-09-22T18:38:21.066Z,82.69
2022-09-22T18:40:47.568Z,86.42
2022-09-22T18:43:13.945Z,83.85
2022-09-22T18:45:40.317Z,79.10
2022-09-22T18:48:07.117Z,76.57
2022-09-22T18:50:34.638Z,76.61
2022-09-22T18:53:01.090Z,77.10
2022-09-22T18:55:27.441Z,80.10
2022-09-22T18:57:54.063Z,77.04
2022-09-22T19:00:21.578Z,81.18
2022-09-22T19:02:48.510Z,82.68
2022-09-22T19:05:14.882Z,84.42
2022-09-22T19:07:44.116Z,85.72
2022-09-22T19:10:14.713Z,82.54
2022-09-22T19:12:41.240Z,84.82
2022-09-22T19:15:15.618Z,84.55
2022-09-22T19:17:43.999Z,85.67
2022-09-22T19:20:12.263Z,84.14
2022-09-22T19:22:38.598Z,84.58
2022-09-22T19:25:05.693Z,88.01
2022-09-22T19:27:32.384Z,85.60
2022-09-22T19:29:58.715Z,88.94
2022-09-22T19:32:25.069Z,90.16
2022-09-22T19:34:53.678Z,91.91
2022-09-22T19:37:20.306Z,90.18
2022-09-22T19:39:46.627Z,87.32
2022-09-22T19:42:12.946Z,86.36
2022-09-22T19:44:40.113Z,89.25
2022-09-22T19:47:06.440Z,90.36
2022-09-22T19:49:32.804Z,90.92
2022-09-22T19:51:59.136Z,93.02
2022-09-22T19:54:25.499Z,92.23
2022-09-22T19:56:51.831Z,92.64
2022-09-22T19:59:19.585Z,92.81
2022-09-22T20:01:46.376Z,95.16
2022-09-22T20:04:13.315Z,96.25
2022-09-22T20:06:39.634Z,97.33
2022-09-22T20:09:05.950Z,97.26
2022-09-22T20:11:36.343Z,97.10
2022-09-22T20:14:22.153Z,97.23
2022-09-22T20:16:55.361Z,98.11
2022-09-22T20:19:25.665Z,96.70
2022-09-22T20:21:54.464Z,95.30
2022-09-22T20:24:21.379Z,94.71
2022-09-22T20:26:47.959Z,94.16
2022-09-22T20:29:14.876Z,94.28
2022-09-22T20:31:41.296Z,93.48
2022-09-22T20:34:07.612Z,96.03
2022-09-22T20:36:36.902Z,96.61
2022-09-22T20:39:03.906Z,97.20
2022-09-22T20:41:30.338Z,96.37
2022-09-22T20:43:58.352Z,94.80
2022-09-22T20:46:24.727Z,94.38
2022-09-22T20:48:55.251Z,95.01
2022-09-22T20:51:21.817Z,95.02
2022-09-22T20:53:48.143Z,95.17
2022-09-22T20:56:14.872Z,94.87
2022-09-22T20:58:41.696Z,96.84
2022-09-22T21:01:08.363Z,95.67
2022-09-22T21:03:35.275Z,93.86
2022-09-22T21:06:02.091Z,93.83
2022-09-22T21:08:47.193Z,94.06
2022-09-22T21:11:14.170Z,96.02
2022-09-22T21:13:41.238Z,96.57
2022-09-22T21:16:07.682Z,94.80
2022-09-22T21:18:37.316Z,94.68
2022-09-22T21:21:04.137Z,95.88
2022-09-22T21:23:31.131Z,96.40
2022-09-22T21:26:05.702Z,97.16
2022-09-22T21:28:32.032Z,95.57
2022-09-22T21:30:59.192Z,96.52
2022-09-22T21:33:27.013Z,95.75
2022-09-22T21:36:00.925Z,94.78
2022-09-22T21:38:27.563Z,96.08
2022-09-22T21:40:57.871Z,97.73
2022-09-22T21:43:24.197Z,94.46
2022-09-22T21:45:55.116Z,93.22
2022-09-22T21:48:21.460Z,94.23
2022-09-22T21:50:54.709Z,94.68
2022-09-22T21:53:21.101Z,96.01
2022-09-22T21:55:47.449Z,95.43
2022-09-22T21:58:13.764Z,92.07
2022-09-22T22:00:51.764Z,91.81
2022-09-22T22:03:30.816Z,90.15
2022-09-22T22:06:03.456Z,88.21
2022-09-22T22:08:33.677Z,87.83
2022-09-22T22:11:06.006Z,87.79
2022-09-22T22:13:36.072Z,87.80
2022-09-22T22:16:02.683Z,90.69
2022-09-22T22:18:29.152Z,93.19
2022-09-22T22:21:05.630Z,94.66
2022-09-22T22:23:32.953Z,95.37
2022-09-22T22:26:00.990Z,96.89
2022-09-22T22:28:27.487Z,97.21
2022-09-22T22:30:53.878Z,95.48
2022-09-22T22:33:21.851Z,95.18
2022-09-22T22:35:51.808Z,96.12
2022-09-22T22:38:18.140Z,98.06
2022-09-22T22:40:46.491Z,96.47
2022-09-22T22:43:16.711Z,96.63
2022-09-22T22:45:46.217Z,98.68
2022-09-22T22:48:12.754Z,99.55
2022-09-22T22:50:42.001Z,99.37
2022-09-22T22:53:09.024Z,100.00
2022-09-22T22:55:35.642Z,100.00
2022-09-22T22:58:01.985Z,100.00
2022-09-22T23:00:28.400Z,99.96
2022-09-22T23:02:54.714Z,100.00
2022-09-22T23:05:21.207Z,100.00
2022-09-22T23:07:47.589Z,100.00
2022-09-22T23:10:13.932Z,100.00
2022-09-22T23:12:40.402Z,100.00
2022-09-22T23:15:10.239Z,100.00
2022-09-22T23:17:36.754Z,100.00
2022-09-22T23:20:04.263Z,100.00
2022-09-22T23:22:30.628Z,100.00
2022-09-22T23:24:57.272Z,100.00
2022-09-22T23:27:23.700Z,100.00
2022-09-22T23:29:50.449Z,100.00
2022-09-22T23:32:17.168Z,100.00
2022-09-22T23:34:43.729Z,100.00
2022-09-22T23:37:10.094Z,100.00
2022-09-22T23:39:36.435Z,100.00
2022-09-22T23:42:02.826Z,100.00
2022-09-22T23:44:29.735Z,100.00
2022-09-22T23:46:56.542Z,100.00
2022-09-22T23:49:22.896Z,100.00
2022-09-22T23:51:49.232Z,100.00
2022-09-22T23:54:15.543Z,100.00
2022-09-22T23:56:41.876Z,100.00
2022-09-22T23:59:08.358Z,100.00
